Data for 11/29/2015

Time Sea-Level Adjusted Pressure Absolute Pressure Temperature Relative Humidity Dew Point   
(mb) (inHg) (mb) (inHg) (C) (F) (%) (C) (F)
00:05 1022 30.18 852 25.16 -13 8.7 75 -16.5 2.4
00:10 1022 30.18 851 25.13 -12.8 9 71 -16.9 1.6
00:15 1022 30.18 851 25.13 -13.5 7.7 76 -16.9 1.6
00:20 1022 30.18 851 25.13 -13.2 8.3 73 -17.1 1.3
00:25 1022 30.18 851 25.13 -13.2 8.2 73 -17.1 1.1
00:30 1022 30.18 851 25.13 -13.1 8.4 71 -17.3 0.9
00:35 1022 30.18 852 25.16 -13.5 7.7 73 -17.3 0.9
00:40 1022 30.18 852 25.16 -13.4 7.8 73 -17.3 0.8
00:45 1022 30.18 852 25.16 -13.4 7.9 73 -17.2 1
00:50 1022 30.18 852 25.16 -13.3 8 73 -17.2 1
00:55 1022 30.18 852 25.16 -13.4 7.9 73 -17.3 0.9
01:00 1022 30.18 852 25.16 -13.5 7.7 73 -17.3 0.9
01:05 1022 30.18 852 25.16 -13.4 8 73 -17.2 1
01:10 1022 30.18 852 25.16 -13.2 8.2 71 -17.3 0.8
01:15 1022 30.18 852 25.16 -13.4 7.8 72 -17.4 0.7
01:20 1022 30.18 851 25.13 -13.4 7.9 72 -17.4 0.7
01:25 1022 30.18 851 25.13 -13.4 7.8 74 -17.2 1
01:30 1022 30.18 851 25.13 -13.8 7.3 75 -17.3 0.8
01:35 1022 30.18 851 25.13 -13.6 7.5 73 -17.5 0.6
01:40 1022 30.18 851 25.13 -13.6 7.6 73 -17.4 0.7
01:45 1022 30.18 851 25.13 -13.4 7.9 72 -17.4 0.7
01:50 1022 30.18 851 25.13 -13.3 8 73 -17.2 1
01:55 1022 30.18 851 25.13 -13.4 8 74 -17.1 1.2
02:00 1022 30.18 851 25.13 -13 8.7 70 -17.3 0.9
02:05 1022 30.18 851 25.13 -12.9 8.8 69 -17.4 0.7
02:10 1022 30.18 851 25.13 -13.1 8.4 70 -17.5 0.6
02:15 1022 30.18 851 25.13 -13.3 8.1 71 -17.5 0.4
02:20 1022 30.18 851 25.13 -13.4 7.9 71 -17.5 0.5
02:25 1022 30.18 851 25.13 -14 6.9 74 -17.6 0.4
02:30 1022 30.18 851 25.13 -14.2 6.4 76 -17.6 0.3
02:35 1022 30.18 851 25.13 -13.5 7.7 71 -17.7 0.1
02:40 1022 30.18 851 25.13 -13.8 7.2 73 -17.7 0.2
02:45 1022 30.18 851 25.13 -13.4 7.9 71 -17.6 0.4
02:50 1022 30.18 851 25.13 -12.8 8.9 71 -17.1 1.2
02:55 1022 30.18 851 25.13 -13.3 8.1 71 -17.6 0.4
03:00 1022 30.18 851 25.13 -13.6 7.6 71 -17.8 0
03:05 1022 30.18 851 25.13 -13.8 7.3 72 -17.8 0
03:10 1022 30.18 851 25.13 -13.6 7.6 72 -17.6 0.4
03:15 1022 30.18 851 25.13 -13.4 7.9 72 -17.4 0.6
03:20 1022 30.18 851 25.13 -13.1 8.5 71 -17.2 1
03:25 1022 30.18 851 25.13 -13.6 7.4 73 -17.5 0.5
03:30 1022 30.18 851 25.13 -13.7 7.4 74 -17.4 0.7
03:35 1022 30.18 851 25.13 -13.7 7.3 71 -17.9 -0.2
03:40 1022 30.18 851 25.13 -14.1 6.6 73 -17.9 -0.2
03:45 1022 30.18 851 25.13 -14.3 6.4 75 -17.8 -0.1
03:50 1022 30.18 851 25.13 -13.9 7 72 -17.8 -0.1
03:55 1022 30.18 851 25.13 -13.5 7.8 69 -17.9 -0.2
04:00 1022 30.18 851 25.13 -13.1 8.3 68 -17.9 -0.2
04:05 1022 30.18 851 25.13 -13.6 7.6 72 -17.7 0.2
04:10 1022 30.18 851 25.13 -13.7 7.3 72 -17.8 -0
04:15 1022 30.18 851 25.13 -13.7 7.4 72 -17.8 0
04:20 1022 30.18 851 25.13 -13.8 7.1 71 -18 -0.3
04:25 1022 30.18 851 25.13 -13.6 7.5 70 -17.9 -0.2
04:30 1022 30.18 851 25.13 -13.5 7.6 72 -17.6 0.3
04:35 1022 30.18 851 25.13 -13.5 7.7 73 -17.5 0.6
04:40 1022 30.18 851 25.13 -13.6 7.5 73 -17.4 0.6
04:45 1022 30.18 851 25.13 -14 6.7 73 -17.8 -0.1
04:50 1021 30.15 851 25.13 -13.8 7.1 72 -17.9 -0.2
04:55 1021 30.15 851 25.13 -13.7 7.4 71 -17.8 -0.1
05:00 1021 30.15 851 25.13 -13.3 8.1 69 -17.8 -0.1
05:05 1022 30.18 851 25.13 -13.3 8.1 70 -17.6 0.2
05:10 1022 30.18 851 25.13 -13.5 7.8 70 -17.8 -0
05:15 1022 30.18 851 25.13 -13.5 7.8 70 -17.8 -0.1
05:20 1022 30.18 851 25.13 -13.7 7.4 70 -18 -0.5
05:25 1022 30.18 851 25.13 -13.9 6.9 72 -18 -0.3
05:30 1022 30.18 851 25.13 -14.1 6.6 72 -18.1 -0.6
05:35 1022 30.18 851 25.13 -14.3 6.2 73 -18.2 -0.8
05:40 1022 30.18 851 25.13 -14.5 6 74 -18.1 -0.5
05:45 1022 30.18 851 25.13 -14.2 6.5 72 -18.1 -0.6
05:50 1022 30.18 851 25.13 -13.8 7.1 70 -18.2 -0.7
05:55 1022 30.18 851 25.13 -14.2 6.5 71 -18.3 -1
06:00 1022 30.18 851 25.13 -14.4 6.1 72 -18.3 -1
06:05 1022 30.18 851 25.13 -14.2 6.5 72 -18.2 -0.7
06:10 1022 30.18 851 25.13 -14 6.8 71 -18.1 -0.6
06:15 1022 30.18 851 25.13 -13.9 7 71 -18.1 -0.5
06:20 1022 30.18 851 25.13 -13.7 7.4 70 -18 -0.5
06:25 1022 30.18 851 25.13 -13.8 7.1 71 -18 -0.4
06:30 1022 30.18 851 25.13 -13.9 7 72 -17.9 -0.3
06:35 1022 30.18 851 25.13 -13.4 7.8 69 -18 -0.4
06:40 1022 30.18 851 25.13 -13.9 7 71 -18.1 -0.5
06:45 1022 30.18 851 25.13 -13.8 7.1 69 -18.4 -1.1
06:50 1022 30.18 851 25.13 -13.9 7.1 70 -18.3 -0.9
06:55 1022 30.18 851 25.13 -14.1 6.6 71 -18.3 -1
07:00 1022 30.18 851 25.13 -13.8 7.2 69 -18.4 -1
07:05 1022 30.18 851 25.13 -13.8 7.2 67 -18.6 -1.5
07:10 1022 30.18 851 25.13 -14.4 6.1 72 -18.3 -1
07:15 1022 30.18 851 25.13 -13.5 7.7 68 -18.2 -0.8
07:20 1022 30.18 851 25.13 -13.4 7.9 68 -18.1 -0.5
07:25 1022 30.18 851 25.13 -13.5 7.6 69 -18.1 -0.6
07:30 1022 30.18 851 25.13 -13.5 7.6 68 -18.3 -0.9
07:35 1022 30.18 851 25.13 -13.3 8.2 67 -18.2 -0.8
07:40 1022 30.18 851 25.13 -12.8 9 65 -18 -0.5
07:45 1022 30.18 851 25.13 -13 8.6 67 -17.9 -0.2
07:50 1022 30.18 851 25.13 -13.6 7.6 70 -18 -0.4
07:55 1022 30.18 851 25.13 -13.8 7.1 69 -18.3 -0.9
08:00 1022 30.18 851 25.13 -13.8 7.2 71 -17.9 -0.3
08:05 1022 30.18 851 25.13 -13.5 7.6 69 -18.1 -0.6
08:10 1022 30.18 851 25.13 -13.4 8 68 -18.1 -0.6
08:15 1022 30.18 851 25.13 -13.5 7.6 70 -17.9 -0.3
08:20 1022 30.18 851 25.13 -13.8 7.2 69 -18.3 -1
08:25 1022 30.18 851 25.13 -13.9 7 69 -18.3 -1
08:30 1022 30.18 851 25.13 -13.8 7.1 70 -18.2 -0.8
08:35 1022 30.18 851 25.13 -13.6 7.5 69 -18.2 -0.7
08:40 1022 30.18 851 25.13 -13.6 7.6 69 -18.2 -0.7
08:45 1022 30.18 851 25.13 -13.6 7.6 68 -18.2 -0.8
08:50 1022 30.18 851 25.13 -14 6.9 70 -18.3 -1
08:55 1022 30.18 851 25.13 -14 6.8 69 -18.4 -1.2
09:00 1022 30.18 851 25.13 -14.1 6.6 70 -18.4 -1.2
09:05 1022 30.18 851 25.13 -13.9 6.9 69 -18.5 -1.3
09:10 1022 30.18 851 25.13 -13.8 7.3 68 -18.4 -1.1
09:15 1022 30.18 851 25.13 -13.4 7.8 66 -18.5 -1.4
09:20 1022 30.18 851 25.13 -13.1 8.3 64 -18.5 -1.3
09:25 1022 30.18 851 25.13 -13.3 8.1 65 -18.6 -1.4
09:30 1022 30.18 851 25.13 -13.1 8.5 64 -18.5 -1.4
09:35 1022 30.18 851 25.13 -12.8 9.1 63 -18.5 -1.2
09:40 1022 30.18 851 25.13 -12.4 9.8 61 -18.4 -1.1
09:45 1022 30.18 851 25.13 -12.4 9.7 62 -18.3 -0.9
09:50 1022 30.18 851 25.13 -12.1 10.3 61 -18.2 -0.8
09:55 1022 30.18 851 25.13 -11.8 10.8 60 -18 -0.5
10:00 1022 30.18 851 25.13 -11.6 11.2 59 -18.1 -0.6
10:05 1022 30.18 851 25.13 -11.2 11.8 58 -17.8 -0.1
10:10 1022 30.18 851 25.13 -11.1 12 58 -17.8 0
10:15 1022 30.18 851 25.13 -11 12.3 59 -17.5 0.5
10:20 1022 30.18 851 25.13 -10.8 12.5 58 -17.6 0.3
10:25 1022 30.18 851 25.13 -10.6 13 55 -17.9 -0.2
10:30 1022 30.18 851 25.13 -10.7 12.8 55 -18 -0.4
10:35 1022 30.18 851 25.13 -10.3 13.6 55 -17.7 0.2
10:40 1022 30.18 851 25.13 -9.7 14.5 54 -17.4 0.6
10:45 1022 30.18 851 25.13 -9.6 14.7 53 -17.4 0.6
10:50 1022 30.18 851 25.13 -9.5 15 54 -17.3 0.9
10:55 1022 30.18 851 25.13 -9.5 14.9 53 -17.4 0.7
11:00 1022 30.18 851 25.13 -9.2 15.5 52 -17.2 1
11:05 1022 30.18 851 25.13 -9 15.9 52 -17.1 1.3
11:10 1022 30.18 851 25.13 -8.7 16.4 52 -17 1.5
11:15 1022 30.18 851 25.13 -8.2 17.3 49 -17.1 1.2
11:20 1022 30.18 851 25.13 -7.8 17.9 49 -16.8 1.8
11:25 1022 30.18 851 25.13 -7.6 18.3 49 -16.6 2
11:30 1022 30.18 851 25.13 -7.5 18.5 49 -16.6 2.1
11:35 1022 30.18 851 25.13 -7.3 18.8 49 -16.4 2.5
11:40 1022 30.18 851 25.13 -7.5 18.6 51 -16 3.2
11:45 1022 30.18 851 25.13 -7.8 18 53 -15.9 3.4
11:50 1022 30.18 851 25.13 -7.8 18 52 -16 3.2
11:55 1022 30.18 851 25.13 -7.8 17.9 54 -15.6 3.9
12:00 1022 30.18 851 25.13 -7.9 17.8 51 -16.4 2.5
12:05 1022 30.18 851 25.13 -7.6 18.4 51 -16 3.1
12:10 1022 30.18 851 25.13 -7.6 18.4 51 -16.1 3.1
12:15 1022 30.18 851 25.13 -7.6 18.3 51 -16.1 3
12:20 1022 30.18 851 25.13 -7.7 18.2 50 -16.4 2.5
12:25 1022 30.18 851 25.13 -7.5 18.5 49 -16.4 2.4
12:30 1022 30.18 851 25.13 -7.6 18.3 50 -16.4 2.4
12:35 1021 30.15 851 25.13 -7.9 17.8 49 -16.7 1.9
12:40 1021 30.15 851 25.13 -7.8 17.9 48 -16.9 1.5
12:45 1021 30.15 851 25.13 -7.9 17.9 48 -17 1.4
12:50 1021 30.15 850 25.1 -7.6 18.4 48 -16.8 1.7
12:55 1021 30.15 850 25.1 -7.5 18.6 49 -16.5 2.2
13:00 1021 30.15 850 25.1 -7.4 18.7 48 -16.7 2
13:05 1021 30.15 850 25.1 -7 19.3 47 -16.5 2.4
13:10 1021 30.15 850 25.1 -6.7 20 46 -16.6 2.2
13:15 1021 30.15 850 25.1 -6.6 20.1 47 -16.3 2.7
13:20 1021 30.15 850 25.1 -6.5 20.4 46 -16.3 2.6
13:25 1021 30.15 850 25.1 -6.6 20.1 48 -16 3.2
13:30 1021 30.15 850 25.1 -6.7 20 47 -16.3 2.7
13:35 1021 30.15 850 25.1 -6.6 20.2 44 -16.8 1.8
13:40 1021 30.15 850 25.1 -6.3 20.7 44 -16.7 2
13:45 1020 30.12 850 25.1 -6.1 21 43 -16.7 1.9
13:50 1020 30.12 850 25.1 -6.2 20.9 44 -16.5 2.3
13:55 1020 30.12 850 25.1 -6 21.1 45 -16.2 2.8
14:00 1020 30.12 849 25.07 -6.1 21 45 -16.1 3
14:05 1020 30.12 849 25.07 -6 21.1 47 -15.8 3.6
14:10 1020 30.12 849 25.07 -6.1 20.9 47 -15.7 3.8
14:15 1020 30.12 849 25.07 -6.2 20.9 47 -15.7 3.8
14:20 1020 30.12 849 25.07 -5.9 21.3 46 -15.7 3.7
14:25 1020 30.12 849 25.07 -5.8 21.5 47 -15.4 4.3
14:30 1020 30.12 849 25.07 -5.7 21.8 43 -16.2 2.8
14:35 1020 30.12 849 25.07 -5.4 22.2 46 -15.3 4.5
14:40 1020 30.12 849 25.07 -5.4 22.2 46 -15.3 4.4
14:45 1020 30.12 849 25.07 -5.6 21.8 48 -14.9 5.2
14:50 1020 30.12 849 25.07 -5.5 22.2 47 -15.2 4.7
14:55 1020 30.12 849 25.07 -5 23 46 -14.9 5.1
15:00 1020 30.12 849 25.07 -5.1 22.9 47 -14.7 5.5
15:05 1020 30.12 849 25.07 -5.6 21.8 51 -14.3 6.3
15:10 1020 30.12 849 25.07 -5.5 22.1 49 -14.6 5.7
15:15 1020 30.12 849 25.07 -5.5 22.2 50 -14.2 6.4
15:20 1020 30.12 849 25.07 -6 21.2 51 -14.7 5.5
15:25 1020 30.12 849 25.07 -6.1 21 51 -14.7 5.5
15:30 1019 30.09 849 25.07 -5.9 21.4 50 -14.6 5.7
15:35 1019 30.09 849 25.07 -6.2 20.8 50 -14.9 5.1
15:40 1019 30.09 849 25.07 -6.2 20.9 49 -15.1 4.8
15:45 1019 30.09 849 25.07 -6.1 21 49 -15.3 4.5
15:50 1019 30.09 849 25.07 -5.9 21.4 49 -15 5
15:55 1019 30.09 849 25.07 -5.8 21.6 49 -15 5
16:00 1019 30.09 848 25.04 -6 21.2 50 -14.9 5.2
16:05 1019 30.09 848 25.04 -6.1 21 51 -14.8 5.4
16:10 1019 30.09 848 25.04 -5.9 21.4 48 -15.2 4.6
16:15 1019 30.09 849 25.07 -5.7 21.7 47 -15.3 4.4
16:20 1019 30.09 848 25.04 -5.7 21.7 46 -15.5 4.1
16:25 1019 30.09 848 25.04 -5.7 21.8 47 -15.3 4.5
16:30 1019 30.09 848 25.04 -5.7 21.7 47 -15.4 4.4
16:35 1019 30.09 848 25.04 -5.5 22.1 46 -15.3 4.5
16:40 1019 30.09 848 25.04 -5.7 21.7 48 -15 5.1
16:45 1019 30.09 848 25.04 -6 21.2 48 -15.3 4.5
16:50 1019 30.09 848 25.04 -5.7 21.8 46 -15.5 4.2
16:55 1019 30.09 848 25.04 -5.7 21.8 47 -15.3 4.4
17:00 1019 30.09 848 25.04 -6 21.2 47 -15.6 3.9
17:05 1019 30.09 848 25.04 -5.9 21.5 46 -15.6 3.9
17:10 1019 30.09 848 25.04 -5.9 21.4 48 -15.2 4.6
17:15 1019 30.09 848 25.04 -6.3 20.6 48 -15.7 3.7
17:20 1019 30.09 848 25.04 -6.7 20 48 -15.8 3.5
17:25 1019 30.09 848 25.04 -6.8 19.7 50 -15.6 4
17:30 1019 30.09 848 25.04 -6.9 19.7 49 -15.8 3.5
17:35 1019 30.09 848 25.04 -7.2 19 55 -14.9 5.2
17:40 1019 30.09 848 25.04 -8.1 17.4 57 -15.2 4.7
17:45 1019 30.09 848 25.04 -8.4 16.9 58 -15.2 4.7
17:50 1019 30.09 848 25.04 -8.4 17 58 -15.3 4.5
17:55 1019 30.09 848 25.04 -8.3 17.2 58 -15.1 4.8
18:00 1019 30.09 848 25.04 -8.4 16.8 58 -15.2 4.6
18:05 1019 30.09 848 25.04 -8.6 16.6 59 -15.1 4.8
18:10 1019 30.09 848 25.04 -8.7 16.3 60 -15.2 4.6
18:15 1019 30.09 848 25.04 -8.8 16.2 60 -15.2 4.6
18:20 1019 30.09 848 25.04 -8.8 16.2 62 -14.9 5.3
18:25 1019 30.09 848 25.04 -8.8 16.2 62 -14.8 5.3
18:30 1019 30.09 848 25.04 -8.8 16.1 63 -14.7 5.5
18:35 1019 30.09 848 25.04 -8.8 16.1 63 -14.7 5.5
18:40 1019 30.09 848 25.04 -8.7 16.4 61 -14.8 5.3
18:45 1019 30.09 848 25.04 -8.5 16.6 61 -14.8 5.4
18:50 1019 30.09 848 25.04 -8.6 16.6 62 -14.6 5.8
18:55 1019 30.09 848 25.04 -8.8 16.2 63 -14.7 5.6
19:00 1019 30.09 848 25.04 -8.9 16 62 -14.8 5.3
19:05 1019 30.09 848 25.04 -8.9 16.1 62 -14.8 5.3
19:10 1019 30.09 848 25.04 -8.9 16 62 -14.9 5.3
19:15 1019 30.09 848 25.04 -9 15.7 62 -15 5
19:20 1019 30.09 848 25.04 -9.2 15.4 64 -14.9 5.2
19:25 1019 30.09 848 25.04 -9.3 15.2 64 -14.9 5.2
19:30 1019 30.09 848 25.04 -9.6 14.6 65 -15 5.1
19:35 1019 30.09 848 25.04 -10 13.9 68 -15 5.1
19:40 1019 30.09 848 25.04 -10.3 13.5 67 -15.3 4.5
19:45 1019 30.09 848 25.04 -10.3 13.4 67 -15.3 4.5
19:50 1019 30.09 848 25.04 -10.2 13.6 67 -15.2 4.6
19:55 1019 30.09 848 25.04 -10.2 13.6 66 -15.4 4.3
20:00 1019 30.09 848 25.04 -10.3 13.6 67 -15.4 4.4
20:05 1019 30.09 848 25.04 -10.4 13.3 70 -14.8 5.3
20:10 1019 30.09 848 25.04 -10.8 12.6 71 -15 5
20:15 1019 30.09 848 25.04 -11.1 11.9 72 -15.2 4.6
20:20 1019 30.09 848 25.04 -11.4 11.4 75 -15 5
20:25 1019 30.09 848 25.04 -11.2 11.9 73 -15.1 4.8
20:30 1018 30.06 848 25.04 -11 12.2 72 -15.2 4.6
20:35 1018 30.06 848 25.04 -10.8 12.6 71 -15 5
20:40 1018 30.06 848 25.04 -10.9 12.5 73 -14.9 5.2
20:45 1018 30.06 848 25.04 -11.2 11.9 73 -15.1 4.9
20:50 1018 30.06 848 25.04 -11.4 11.4 74 -15.1 4.8
20:55 1018 30.06 848 25.04 -11.8 10.8 75 -15.3 4.4
21:00 1018 30.06 848 25.04 -12.1 10.3 75 -15.6 3.9
21:05 1018 30.06 848 25.04 -12.1 10.2 77 -15.4 4.2
21:10 1018 30.06 848 25.04 -11.6 11.2 74 -15.3 4.4
21:15 1018 30.06 848 25.04 -11.1 12.1 73 -15 4.9
21:20 1018 30.06 847 25.01 -10.8 12.6 69 -15.5 4.1
21:25 1018 30.06 847 25.01 -10.9 12.4 68 -15.7 3.7
21:30 1018 30.06 847 25.01 -11 12.2 68 -15.9 3.4
21:35 1018 30.06 847 25.01 -11.1 12.1 68 -15.8 3.5
21:40 1018 30.06 847 25.01 -11 12.3 68 -15.8 3.5
21:45 1018 30.06 847 25.01 -10.9 12.4 68 -15.8 3.6
21:50 1018 30.06 847 25.01 -10.8 12.5 67 -15.8 3.6
21:55 1018 30.06 847 25.01 -10.9 12.4 68 -15.8 3.6
22:00 1018 30.06 847 25.01 -11.1 12.1 68 -15.8 3.6
22:05 1018 30.06 847 25.01 -11 12.2 68 -15.9 3.4
22:10 1018 30.06 847 25.01 -10.9 12.4 67 -15.8 3.5
22:15 1018 30.06 847 25.01 -10.7 12.7 67 -15.8 3.6
22:20 1018 30.06 847 25.01 -11 12.3 67 -15.9 3.3
22:25 1018 30.06 847 25.01 -11.1 12 67 -16 3.2
22:30 1018 30.06 847 25.01 -11 12.2 67 -16 3.3
22:35 1018 30.06 847 25.01 -11 12.3 67 -16 3.2
22:40 1018 30.06 847 25.01 -11 12.3 68 -15.9 3.5
22:45 1018 30.06 847 25.01 -10.8 12.5 67 -15.8 3.6
22:50 1018 30.06 847 25.01 -10.6 13 67 -15.6 3.8
22:55 1018 30.06 847 25.01 -10.4 13.3 66 -15.5 4.1
23:00 1018 30.06 847 25.01 -10.2 13.6 66 -15.4 4.3
23:05 1018 30.06 847 25.01 -10.1 13.7 65 -15.5 4.1
23:10 1018 30.06 847 25.01 -10.2 13.6 66 -15.4 4.3
23:15 1018 30.06 847 25.01 -10.5 13.1 68 -15.2 4.6
23:20 1018 30.06 847 25.01 -10.9 12.5 69 -15.5 4
23:25 1018 30.06 847 25.01 -10.7 12.7 68 -15.5 4.1
23:30 1018 30.06 847 25.01 -10.6 12.8 69 -15.3 4.5
23:35 1018 30.06 847 25.01 -10.5 13 69 -15.2 4.7
23:40 1018 30.06 847 25.01 -10.8 12.7 71 -15.1 4.8
23:45 1018 30.06 847 25.01 -10.9 12.4 70 -15.3 4.5
23:50 1018 30.06 847 25.01 -10.9 12.4 70 -15.3 4.4
23:55 1018 30.06 847 25.01 -10.9 12.5 70 -15.4 4.3
24:00 1018 30.06 847 25.01 -10.7 12.7 70 -15.1 4.8